createdAt,value
2018-05-26T00:00:48.670Z,18.74
2018-05-26T00:01:48.673Z,18.73
2018-05-26T00:02:48.668Z,18.65
2018-05-26T00:03:48.669Z,18.62
2018-05-26T00:04:48.405Z,18.68
2018-05-26T00:05:48.676Z,18.55
2018-05-26T00:06:48.672Z,18.53
2018-05-26T00:07:48.673Z,18.59
2018-05-26T00:08:48.426Z,18.43
2018-05-26T00:09:48.409Z,18.55
2018-05-26T00:10:48.947Z,18.44
2018-05-26T00:11:48.673Z,18.47
2018-05-26T00:12:48.682Z,18.41
2018-05-26T00:13:48.676Z,18.53
2018-05-26T00:14:48.674Z,18.45
2018-05-26T00:15:48.692Z,18.56
2018-05-26T00:16:48.980Z,18.52
2018-05-26T00:17:48.682Z,18.45
2018-05-26T00:18:48.683Z,18.6
2018-05-26T00:19:48.944Z,18.4
2018-05-26T00:20:48.684Z,18.45
2018-05-26T00:21:48.434Z,18.47
2018-05-26T00:22:48.956Z,18.43
2018-05-26T00:23:48.444Z,18.4
2018-05-26T00:24:48.697Z,18.43
2018-05-26T00:25:48.960Z,18.35
2018-05-26T00:26:48.485Z,18.45
2018-05-26T00:27:48.691Z,18.43
2018-05-26T00:28:48.962Z,18.34
2018-05-26T00:29:48.962Z,18.35
2018-05-26T00:30:48.719Z,18.33
2018-05-26T00:31:49.786Z,18.34
2018-05-26T00:32:48.711Z,18.31
2018-05-26T00:33:48.701Z,18.22
2018-05-26T00:34:48.710Z,18.26
2018-05-26T00:35:48.972Z,18.19
2018-05-26T00:36:48.701Z,18.18
2018-05-26T00:37:48.719Z,18.19
2018-05-26T00:38:48.974Z,18.16
2018-05-26T00:39:48.964Z,18.2
2018-05-26T00:40:48.982Z,18.16
2018-05-26T00:41:49.074Z,18.16
2018-05-26T00:42:48.975Z,18.07
2018-05-26T00:43:48.750Z,18.1
2018-05-26T00:44:48.700Z,18.05
2018-05-26T00:45:48.726Z,18.07
2018-05-26T00:46:48.459Z,18
2018-05-26T00:47:48.967Z,18.07
2018-05-26T00:48:48.735Z,18.03
2018-05-26T00:49:48.469Z,18.05
2018-05-26T00:50:48.973Z,18.03
2018-05-26T00:51:49.010Z,18.08
2018-05-26T00:52:48.723Z,18.04
2018-05-26T00:53:48.723Z,18.01
2018-05-26T00:54:48.724Z,18.08
2018-05-26T00:55:48.462Z,17.98
2018-05-26T00:56:48.456Z,17.94
2018-05-26T00:57:48.453Z,17.94
2018-05-26T00:58:48.977Z,17.94
2018-05-26T00:59:48.992Z,17.9
2018-05-26T01:00:48.724Z,17.92
2018-05-26T01:01:49.017Z,17.92
2018-05-26T01:02:48.728Z,17.92
2018-05-26T01:03:48.997Z,17.94
2018-05-26T01:04:48.724Z,17.94
2018-05-26T01:05:48.472Z,17.86
2018-05-26T01:06:48.998Z,17.92
2018-05-26T01:07:48.470Z,17.78
2018-05-26T01:08:48.991Z,17.76
2018-05-26T01:09:48.483Z,17.79
2018-05-26T01:10:48.992Z,17.79
2018-05-26T01:11:48.737Z,17.83
2018-05-26T01:12:48.735Z,17.76
2018-05-26T01:13:48.489Z,17.74
2018-05-26T01:14:48.499Z,17.78
2018-05-26T01:15:49.000Z,17.79
2018-05-26T01:16:48.764Z,17.86
2018-05-26T01:17:49.007Z,17.85
2018-05-26T01:18:49.013Z,17.76
2018-05-26T01:19:49.010Z,17.82
2018-05-26T01:20:48.749Z,17.79
2018-05-26T01:21:49.006Z,17.78
2018-05-26T01:22:49.009Z,17.78
2018-05-26T01:23:48.485Z,17.79
2018-05-26T01:24:48.740Z,17.78
2018-05-26T01:25:48.764Z,17.74
2018-05-26T01:26:49.005Z,17.74
2018-05-26T01:27:48.747Z,17.7
2018-05-26T01:28:48.744Z,17.71
2018-05-26T01:29:48.747Z,17.71
2018-05-26T01:30:48.744Z,17.64
2018-05-26T01:31:49.027Z,17.68
2018-05-26T01:32:48.753Z,17.68
2018-05-26T01:33:48.749Z,17.68
2018-05-26T01:34:49.025Z,17.65
2018-05-26T01:35:49.024Z,17.6
2018-05-26T01:36:49.011Z,17.64
2018-05-26T01:37:48.758Z,17.67
2018-05-26T01:38:48.768Z,17.6
2018-05-26T01:39:48.769Z,17.54
2018-05-26T01:40:48.754Z,17.63
2018-05-26T01:41:48.500Z,17.56
2018-05-26T01:42:48.518Z,17.48
2018-05-26T01:43:48.496Z,17.52
2018-05-26T01:44:48.514Z,17.6
2018-05-26T01:45:48.757Z,17.54
2018-05-26T01:46:48.755Z,17.57
2018-05-26T01:47:49.018Z,17.54
2018-05-26T01:48:48.759Z,17.49
2018-05-26T01:49:49.021Z,17.51
2018-05-26T01:50:48.761Z,17.49
2018-05-26T01:51:49.024Z,17.33
2018-05-26T01:52:49.022Z,17.38
2018-05-26T01:53:49.034Z,17.38
2018-05-26T01:54:49.023Z,17.3
2018-05-26T01:55:48.504Z,17.2
2018-05-26T01:56:48.824Z,17.24
2018-05-26T01:57:48.763Z,17.23
2018-05-26T01:58:48.506Z,17.2
2018-05-26T01:59:48.504Z,17.19
2018-05-26T02:00:48.777Z,17.27
2018-05-26T02:01:48.779Z,17.14
2018-05-26T02:02:49.026Z,17.16
2018-05-26T02:03:48.771Z,17.23
2018-05-26T02:04:48.763Z,17.16
2018-05-26T02:05:49.025Z,17.19
2018-05-26T02:06:49.040Z,17.14
2018-05-26T02:07:48.762Z,17.15
2018-05-26T02:08:48.775Z,17.12
2018-05-26T02:09:49.050Z,17.11
2018-05-26T02:10:48.763Z,17.05
2018-05-26T02:11:49.052Z,17.09
2018-05-26T02:12:48.781Z,17.09
2018-05-26T02:13:49.037Z,17.08
2018-05-26T02:14:49.085Z,17.09
2018-05-26T02:15:48.779Z,17.09
2018-05-26T02:16:48.796Z,17.01
2018-05-26T02:17:48.780Z,17.05
2018-05-26T02:18:48.773Z,16.99
2018-05-26T02:19:48.779Z,17.01
2018-05-26T02:20:49.042Z,16.97
2018-05-26T02:21:48.781Z,16.96
2018-05-26T02:22:49.077Z,16.93
2018-05-26T02:23:49.042Z,16.97
2018-05-26T02:24:49.042Z,16.96
2018-05-26T02:25:48.807Z,16.84
2018-05-26T02:26:49.089Z,16.93
2018-05-26T02:27:48.780Z,16.93
2018-05-26T02:28:48.786Z,16.89
2018-05-26T02:29:49.034Z,16.99
2018-05-26T02:30:48.780Z,16.97
2018-05-26T02:31:49.051Z,16.93
2018-05-26T02:32:48.773Z,16.96
2018-05-26T02:33:48.777Z,16.94
2018-05-26T02:34:49.056Z,16.89
2018-05-26T02:35:49.044Z,16.81
2018-05-26T02:36:49.045Z,16.84
2018-05-26T02:37:49.049Z,16.79
2018-05-26T02:38:49.041Z,16.81
2018-05-26T02:39:49.053Z,16.81
2018-05-26T02:40:48.782Z,16.87
2018-05-26T02:41:49.041Z,16.86
2018-05-26T02:42:48.778Z,16.87
2018-05-26T02:43:49.043Z,16.76
2018-05-26T02:44:48.783Z,16.75
2018-05-26T02:45:48.799Z,16.81
2018-05-26T02:46:48.801Z,16.76
2018-05-26T02:47:49.060Z,16.76
2018-05-26T02:48:49.078Z,16.75
2018-05-26T02:49:48.797Z,16.66
2018-05-26T02:50:48.532Z,16.71
2018-05-26T02:51:48.787Z,16.75
2018-05-26T02:52:48.801Z,16.72
2018-05-26T02:53:48.786Z,16.69
2018-05-26T02:54:49.055Z,16.76
2018-05-26T02:55:49.049Z,16.71
2018-05-26T02:56:48.800Z,16.66
2018-05-26T02:57:49.052Z,16.72
2018-05-26T02:58:48.799Z,16.66
2018-05-26T02:59:49.053Z,16.66
2018-05-26T03:00:48.793Z,16.68
2018-05-26T03:01:49.040Z,16.53
2018-05-26T03:02:48.790Z,16.58
2018-05-26T03:03:49.046Z,16.5
2018-05-26T03:04:49.059Z,16.58
2018-05-26T03:05:48.780Z,16.58
2018-05-26T03:06:49.057Z,16.58
2018-05-26T03:07:49.040Z,16.51
2018-05-26T03:08:48.785Z,16.57
2018-05-26T03:09:49.060Z,16.61
2018-05-26T03:10:49.045Z,16.69
2018-05-26T03:11:49.057Z,16.71
2018-05-26T03:12:49.038Z,16.68
2018-05-26T03:13:49.044Z,16.66
2018-05-26T03:14:48.787Z,16.68
2018-05-26T03:15:49.042Z,16.66
2018-05-26T03:16:48.789Z,16.74
2018-05-26T03:17:49.039Z,16.74
2018-05-26T03:18:48.784Z,16.68
2018-05-26T03:19:48.803Z,16.65
2018-05-26T03:20:49.056Z,16.68
2018-05-26T03:21:49.036Z,16.71
2018-05-26T03:22:48.792Z,16.66
2018-05-26T03:23:48.802Z,16.66
2018-05-26T03:24:48.788Z,16.66
2018-05-26T03:25:49.054Z,16.64
2018-05-26T03:26:49.053Z,16.65
2018-05-26T03:27:48.780Z,16.66
2018-05-26T03:28:49.046Z,16.56
2018-05-26T03:29:48.792Z,16.65
2018-05-26T03:30:49.057Z,16.68
2018-05-26T03:31:49.051Z,16.54
2018-05-26T03:32:49.059Z,16.68
2018-05-26T03:33:49.042Z,16.74
2018-05-26T03:34:49.042Z,16.66
2018-05-26T03:35:48.782Z,16.68
2018-05-26T03:36:49.042Z,16.68
2018-05-26T03:37:48.521Z,16.71
2018-05-26T03:38:49.045Z,16.71
2018-05-26T03:39:48.793Z,16.71
2018-05-26T03:40:49.040Z,16.69
2018-05-26T03:41:48.791Z,16.74
2018-05-26T03:42:48.793Z,16.74
2018-05-26T03:43:48.782Z,16.79
2018-05-26T03:44:48.800Z,16.71
2018-05-26T03:45:48.780Z,16.76
2018-05-26T03:46:48.787Z,16.79
2018-05-26T03:47:49.039Z,16.84
2018-05-26T03:48:48.784Z,16.81
2018-05-26T03:49:48.842Z,16.76
2018-05-26T03:50:49.046Z,16.79
2018-05-26T03:51:49.051Z,16.79
2018-05-26T03:52:49.087Z,16.83
2018-05-26T03:53:49.041Z,16.81
2018-05-26T03:54:48.785Z,16.83
2018-05-26T03:55:48.794Z,16.83
2018-05-26T03:56:49.104Z,16.89
2018-05-26T03:57:48.795Z,16.87
2018-05-26T03:58:48.791Z,16.99
2018-05-26T03:59:48.790Z,16.96
2018-05-26T04:00:48.792Z,17.06
2018-05-26T04:01:48.784Z,17.14
2018-05-26T04:02:49.045Z,17.36
2018-05-26T04:03:48.804Z,17.41
2018-05-26T04:04:49.046Z,17.6
2018-05-26T04:05:49.156Z,17.64
2018-05-26T04:06:48.790Z,17.74
2018-05-26T04:07:49.045Z,17.92
2018-05-26T04:08:49.070Z,17.9
2018-05-26T04:09:49.053Z,18.07
2018-05-26T04:10:48.813Z,18.13
2018-05-26T04:11:48.531Z,18.23
2018-05-26T04:12:48.801Z,18.31
2018-05-26T04:13:49.084Z,18.31
2018-05-26T04:14:48.795Z,18.34
2018-05-26T04:15:48.796Z,18.35
2018-05-26T04:16:49.055Z,18.38
2018-05-26T04:17:48.792Z,18.41
2018-05-26T04:18:49.073Z,18.59
2018-05-26T04:19:48.811Z,18.7
2018-05-26T04:20:48.817Z,18.7
2018-05-26T04:21:49.075Z,18.66
2018-05-26T04:22:49.075Z,18.84
2018-05-26T04:23:49.075Z,18.89
2018-05-26T04:24:49.082Z,18.96
2018-05-26T04:25:48.817Z,18.92
2018-05-26T04:26:49.387Z,19.07
2018-05-26T04:27:49.074Z,19.07
2018-05-26T04:28:49.084Z,19
2018-05-26T04:29:49.093Z,18.95
2018-05-26T04:30:48.837Z,18.95
2018-05-26T04:31:48.850Z,18.88
2018-05-26T04:32:48.831Z,18.92
2018-05-26T04:33:48.565Z,18.95
2018-05-26T04:34:48.838Z,18.98
2018-05-26T04:35:49.097Z,19.08
2018-05-26T04:36:48.839Z,19.07
2018-05-26T04:37:48.834Z,19.22
2018-05-26T04:38:49.107Z,19.19
2018-05-26T04:39:49.119Z,19.26
2018-05-26T04:40:49.098Z,19.26
2018-05-26T04:41:48.841Z,19.31
2018-05-26T04:42:49.105Z,19.47
2018-05-26T04:43:48.848Z,19.44
2018-05-26T04:44:48.862Z,19.45
2018-05-26T04:45:49.113Z,19.36
2018-05-26T04:46:48.591Z,19.31
2018-05-26T04:47:48.858Z,19.36
2018-05-26T04:48:48.863Z,19.3
2018-05-26T04:49:49.141Z,19.22
2018-05-26T04:50:48.866Z,19.44
2018-05-26T04:51:49.154Z,19.48
2018-05-26T04:52:48.890Z,19.54
2018-05-26T04:53:49.131Z,19.58
2018-05-26T04:54:48.616Z,19.71
2018-05-26T04:55:49.131Z,19.82
2018-05-26T04:56:49.156Z,19.89
2018-05-26T04:57:49.129Z,19.85
2018-05-26T04:58:49.137Z,19.92
2018-05-26T04:59:48.880Z,19.99
2018-05-26T05:00:48.635Z,20.02
2018-05-26T05:01:48.896Z,20
2018-05-26T05:02:48.922Z,20.24
2018-05-26T05:03:48.917Z,20.25
2018-05-26T05:04:49.171Z,20.32
2018-05-26T05:05:49.232Z,20.28
2018-05-26T05:06:48.908Z,20.32
2018-05-26T05:07:48.651Z,20.37
2018-05-26T05:08:48.912Z,20.25
2018-05-26T05:09:48.663Z,20.22
2018-05-26T05:10:49.178Z,20.02
2018-05-26T05:11:49.182Z,19.85
2018-05-26T05:12:49.181Z,19.88
2018-05-26T05:13:48.929Z,19.66
2018-05-26T05:14:49.205Z,19.77
2018-05-26T05:15:48.940Z,19.85
2018-05-26T05:16:49.190Z,19.95
2018-05-26T05:17:48.931Z,19.95
2018-05-26T05:18:49.195Z,19.88
2018-05-26T05:19:49.195Z,19.85
2018-05-26T05:20:48.945Z,19.94
2018-05-26T05:21:48.686Z,19.92
2018-05-26T05:22:48.947Z,19.91
2018-05-26T05:23:48.962Z,19.81
2018-05-26T05:24:49.213Z,19.82
2018-05-26T05:25:48.742Z,19.73
2018-05-26T05:26:49.118Z,19.67
2018-05-26T05:27:49.223Z,19.58
2018-05-26T05:28:48.965Z,19.7
2018-05-26T05:29:49.239Z,19.88
2018-05-26T05:30:49.248Z,20.03
2018-05-26T05:31:49.234Z,20.18
2018-05-26T05:32:49.245Z,20.32
2018-05-26T05:33:48.722Z,20.55
2018-05-26T05:34:49.244Z,20.7
2018-05-26T05:35:49.256Z,20.78
2018-05-26T05:36:48.996Z,20.85
2018-05-26T05:37:48.986Z,20.84
2018-05-26T05:38:48.999Z,20.9
2018-05-26T05:39:48.994Z,20.85
2018-05-26T05:40:49.280Z,20.65
2018-05-26T05:41:48.995Z,20.51
2018-05-26T05:42:49.262Z,20.5
2018-05-26T05:43:49.012Z,20.36
2018-05-26T05:44:49.268Z,20.36
2018-05-26T05:45:49.287Z,20.41
2018-05-26T05:46:49.274Z,20.39
2018-05-26T05:47:49.281Z,20.39
2018-05-26T05:48:49.308Z,20.36
2018-05-26T05:49:49.021Z,20.58
2018-05-26T05:50:49.042Z,20.85
2018-05-26T05:51:49.299Z,21.15
2018-05-26T05:52:49.292Z,21.22
2018-05-26T05:53:49.046Z,21.29
2018-05-26T05:54:49.042Z,21.39
2018-05-26T05:55:49.319Z,21.43
2018-05-26T05:56:50.367Z,21.46
2018-05-26T05:57:49.066Z,21.54
2018-05-26T05:58:48.800Z,21.58
2018-05-26T05:59:48.808Z,21.55
2018-05-26T06:00:49.325Z,21.8
2018-05-26T06:01:49.074Z,21.95
2018-05-26T06:02:49.089Z,22.1
2018-05-26T06:03:49.073Z,22.38
2018-05-26T06:04:49.087Z,22.68
2018-05-26T06:05:48.832Z,22.84
2018-05-26T06:06:49.138Z,23.12
2018-05-26T06:07:49.091Z,23.44
2018-05-26T06:08:49.105Z,23.66
2018-05-26T06:09:49.366Z,23.63
2018-05-26T06:10:48.853Z,23.76
2018-05-26T06:11:49.388Z,23.71
2018-05-26T06:12:49.111Z,23.65
2018-05-26T06:13:49.386Z,23.99
2018-05-26T06:23:24.609Z,24.33
2018-05-26T06:24:24.345Z,23.8
2018-05-26T06:25:24.341Z,23.34
2018-05-26T06:26:24.356Z,22.83
2018-05-26T06:27:24.337Z,22.51
2018-05-26T06:28:24.079Z,22.25
2018-05-26T06:29:24.385Z,22.13
2018-05-26T06:30:24.373Z,21.89
2018-05-26T06:31:24.367Z,21.79
2018-05-26T06:32:24.353Z,21.61
2018-05-26T06:33:24.625Z,21.61
2018-05-26T06:34:24.629Z,21.64
2018-05-26T06:35:24.109Z,21.55
2018-05-26T06:36:24.378Z,21.64
2018-05-26T06:37:24.672Z,21.62
2018-05-26T06:38:24.628Z,21.5
2018-05-26T06:39:24.418Z,21.55
2018-05-26T06:40:24.652Z,21.55
2018-05-26T06:41:24.409Z,21.69
2018-05-26T06:42:24.652Z,22
2018-05-26T06:43:24.657Z,22.35
2018-05-26T06:44:24.423Z,22.65
2018-05-26T06:45:24.813Z,22.96
2018-05-26T06:46:24.417Z,23.34
2018-05-26T06:47:24.417Z,23.68
2018-05-26T06:48:25.209Z,23.87
2018-05-26T06:49:24.677Z,24.11
2018-05-26T06:50:24.425Z,24.39
2018-05-26T06:51:24.909Z,24.84
2018-05-26T06:52:24.697Z,25.22
2018-05-26T06:53:24.709Z,25.77
2018-05-26T06:54:24.185Z,26.45
2018-05-26T06:55:24.718Z,26.92
2018-05-26T06:56:24.462Z,27.52
2018-05-26T06:57:24.474Z,28.1
2018-05-26T06:58:24.229Z,28.49
2018-05-26T06:59:24.472Z,28.88
2018-05-26T07:00:24.916Z,29.13
2018-05-26T07:01:24.493Z,29.34
2018-05-26T07:02:24.744Z,29.01
2018-05-26T07:03:24.509Z,28.37
2018-05-26T07:04:24.788Z,27.67
2018-05-26T07:05:24.769Z,27.07
2018-05-26T07:06:24.267Z,26.77
2018-05-26T07:07:24.799Z,26.55
2018-05-26T07:08:24.793Z,26.4
2018-05-26T07:09:24.796Z,26.23
2018-05-26T07:10:24.304Z,26.29
2018-05-26T07:11:24.549Z,26.71
2018-05-26T07:12:24.823Z,27.05
2018-05-26T07:13:24.569Z,27.52
2018-05-26T07:14:24.564Z,28.2
2018-05-26T07:15:24.574Z,28.72
2018-05-26T07:16:24.849Z,29.14
2018-05-26T07:17:24.357Z,29.63
2018-05-26T07:18:24.355Z,29.78
2018-05-26T07:19:24.617Z,30.03
2018-05-26T07:20:24.897Z,29.97
2018-05-26T07:21:24.897Z,30.08
2018-05-26T07:22:24.896Z,30.13
2018-05-26T07:23:24.915Z,30.1
2018-05-26T07:24:24.645Z,29.88
2018-05-26T07:25:24.652Z,29.86
2018-05-26T07:26:24.940Z,29.9
2018-05-26T07:27:24.940Z,30.12
2018-05-26T07:28:24.955Z,30.47
2018-05-26T07:29:24.449Z,30.75
2018-05-26T07:30:24.692Z,30.77
2018-05-26T07:31:24.705Z,30.44
2018-05-26T07:32:24.981Z,29.82
2018-05-26T07:33:24.724Z,29.32
2018-05-26T07:34:24.733Z,29.26
2018-05-26T07:35:24.996Z,29.29
2018-05-26T07:36:25.005Z,29.26
2018-05-26T07:37:24.774Z,29.36
2018-05-26T07:38:24.757Z,29.56
2018-05-26T07:39:24.781Z,29.61
2018-05-26T07:40:25.042Z,29.26
2018-05-26T07:41:25.043Z,29.47
2018-05-26T07:42:24.793Z,29.81
2018-05-26T07:43:24.816Z,29.98
2018-05-26T07:44:25.078Z,30.19
2018-05-26T07:45:24.817Z,30.23
2018-05-26T07:46:24.571Z,30.37
2018-05-26T07:47:25.204Z,30.37
2018-05-26T07:48:24.846Z,30.27
2018-05-26T07:49:25.122Z,30.02
2018-05-26T07:50:24.853Z,30.18
2018-05-26T07:51:25.131Z,29.97
2018-05-26T07:52:25.146Z,29.38
2018-05-26T07:53:24.909Z,29.08
2018-05-26T07:54:25.157Z,29.12
2018-05-26T07:55:25.198Z,28.96
2018-05-26T07:56:25.120Z,29.02
2018-05-26T07:57:24.917Z,28.98
2018-05-26T07:58:25.056Z,28.85
2018-05-26T07:59:24.972Z,28.84
2018-05-26T08:00:25.203Z,28.96
2018-05-26T08:01:24.953Z,29.38
2018-05-26T08:02:24.955Z,29.72
2018-05-26T08:03:25.226Z,30.12
2018-05-26T08:04:25.255Z,30.37
2018-05-26T08:05:25.078Z,30.15
2018-05-26T08:06:24.997Z,30.24
2018-05-26T08:07:25.005Z,29.97
2018-05-26T08:08:25.011Z,29.9
2018-05-26T08:09:25.295Z,29.49
2018-05-26T08:10:25.035Z,29.23
2018-05-26T08:11:25.308Z,28.93
2018-05-26T08:12:25.075Z,28.76
2018-05-26T08:13:25.091Z,28.59
2018-05-26T08:14:24.857Z,28.25
2018-05-26T08:15:25.082Z,27.96
2018-05-26T08:16:25.100Z,27.83
2018-05-26T08:17:25.259Z,27.83
2018-05-26T08:18:25.101Z,27.95
2018-05-26T08:19:25.367Z,28.1
2018-05-26T08:20:25.103Z,28.12
2018-05-26T08:21:25.401Z,28.27
2018-05-26T08:22:25.392Z,28.44
2018-05-26T08:23:25.129Z,28.67
2018-05-26T08:24:25.167Z,28.97
2018-05-26T08:25:25.416Z,28.91
2018-05-26T08:26:25.424Z,28.98
2018-05-26T08:27:25.556Z,29.23
2018-05-26T08:28:25.438Z,29.51
2018-05-26T08:29:25.452Z,29.88
2018-05-26T08:30:25.186Z,30.06
2018-05-26T08:31:25.450Z,30.43
2018-05-26T08:32:25.196Z,30.91
2018-05-26T08:33:25.468Z,31.52
2018-05-26T08:34:25.208Z,32.09
2018-05-26T08:35:25.222Z,32.52
2018-05-26T08:36:25.498Z,32.83
2018-05-26T08:37:25.255Z,33.05
2018-05-26T08:38:25.265Z,33.15
2018-05-26T08:39:25.258Z,33.32
2018-05-26T08:40:25.520Z,33.24
2018-05-26T08:41:25.532Z,32.77
2018-05-26T08:42:25.027Z,32.59
2018-05-26T08:43:25.051Z,32.46
2018-05-26T08:44:25.646Z,32.52
2018-05-26T08:45:25.324Z,32.68
2018-05-26T08:46:25.577Z,32.7
2018-05-26T08:47:25.602Z,32.77
2018-05-26T08:48:25.079Z,32.45
2018-05-26T08:49:25.343Z,32.21
2018-05-26T08:50:25.096Z,31.94
2018-05-26T08:51:25.375Z,31.28
2018-05-26T08:52:25.367Z,30.53
2018-05-26T08:53:25.648Z,29.86
2018-05-26T08:54:25.400Z,29.39
2018-05-26T08:55:25.162Z,28.88
2018-05-26T08:56:25.668Z,28.45
2018-05-26T08:57:25.674Z,28.1
2018-05-26T08:58:25.681Z,27.89
2018-05-26T08:59:25.705Z,27.85
2018-05-26T09:00:25.693Z,27.73
2018-05-26T09:01:25.465Z,27.64
2018-05-26T09:02:25.816Z,27.44
2018-05-26T09:03:25.723Z,27.49
2018-05-26T09:04:25.797Z,27.58
2018-05-26T09:05:25.247Z,27.68
2018-05-26T09:06:25.879Z,27.77
2018-05-26T09:07:25.496Z,27.73
2018-05-26T09:08:25.760Z,27.7
2018-05-26T09:09:25.787Z,27.71
2018-05-26T09:10:25.533Z,27.68
2018-05-26T09:11:25.944Z,27.63
2018-05-26T09:12:25.277Z,27.55
2018-05-26T09:13:25.544Z,27.6
2018-05-26T09:14:25.831Z,27.59
2018-05-26T09:15:25.566Z,27.54
2018-05-26T09:16:25.558Z,27.45
2018-05-26T09:17:25.575Z,27.27
2018-05-26T09:18:25.596Z,27.33
2018-05-26T09:19:25.576Z,27.2
2018-05-26T09:20:25.589Z,27.21
2018-05-26T09:21:25.900Z,27.27
2018-05-26T09:22:25.613Z,27.3
2018-05-26T09:23:25.613Z,27.29
2018-05-26T09:24:25.621Z,27.25
2018-05-26T09:25:25.868Z,27.32
2018-05-26T09:26:25.899Z,27.07
2018-05-26T09:27:25.369Z,26.83
2018-05-26T09:28:25.651Z,26.83
2018-05-26T09:29:25.691Z,26.89
2018-05-26T09:30:25.674Z,26.84
2018-05-26T09:31:26.103Z,27.02
2018-05-26T09:32:25.420Z,26.9
2018-05-26T09:33:25.938Z,27.07
2018-05-26T09:34:25.678Z,27.07
2018-05-26T09:35:25.686Z,27.2
2018-05-26T09:36:25.955Z,27.22
2018-05-26T09:37:25.964Z,27.36
2018-05-26T09:38:25.692Z,27.64
2018-05-26T09:39:26.015Z,27.9
2018-05-26T09:40:25.737Z,28.14
2018-05-26T09:41:25.738Z,28.35
2018-05-26T09:42:25.781Z,28.37
2018-05-26T09:43:25.740Z,28.49
2018-05-26T09:44:25.730Z,28.59
2018-05-26T09:45:25.736Z,28.52
2018-05-26T09:46:26.011Z,28.45
2018-05-26T09:47:26.024Z,28.12
2018-05-26T09:48:25.762Z,27.8
2018-05-26T09:49:26.039Z,27.63
2018-05-26T09:50:25.772Z,27.55
2018-05-26T09:51:26.040Z,27.52
2018-05-26T09:52:26.048Z,27.55
2018-05-26T09:53:25.796Z,27.87
2018-05-26T09:54:25.531Z,28.08
2018-05-26T09:55:26.068Z,28.19
2018-05-26T09:56:25.873Z,28.3
2018-05-26T09:57:25.809Z,28.41
2018-05-26T09:58:25.559Z,28.39
2018-05-26T09:59:25.817Z,28.23
2018-05-26T10:00:25.856Z,28.32
2018-05-26T10:01:25.829Z,28.39
2018-05-26T10:02:26.120Z,28.42
2018-05-26T10:03:25.864Z,28.49
2018-05-26T10:04:26.419Z,28.54
2018-05-26T10:05:25.858Z,28.45
2018-05-26T10:06:25.604Z,28.52
2018-05-26T10:07:25.896Z,28.39
2018-05-26T10:08:25.891Z,28.45
2018-05-26T10:09:26.181Z,28.38
2018-05-26T10:10:26.145Z,28.26
2018-05-26T10:11:25.898Z,28.15
2018-05-26T10:12:25.919Z,28.1
2018-05-26T10:13:25.982Z,28.08
2018-05-26T10:14:25.985Z,28.07
2018-05-26T10:15:25.921Z,27.86
2018-05-26T10:16:26.185Z,27.98
2018-05-26T10:17:26.199Z,27.87
2018-05-26T10:18:25.941Z,27.85
2018-05-26T10:19:25.942Z,27.92
2018-05-26T10:20:25.953Z,27.96
2018-05-26T10:21:26.244Z,28.02
2018-05-26T10:22:25.972Z,28.05
2018-05-26T10:23:26.246Z,28.1
2018-05-26T10:54:00.677Z,29.69
2018-05-26T10:54:59.899Z,29.68
2018-05-26T10:56:00.012Z,29.72
2018-05-26T10:57:00.176Z,29.65
2018-05-26T10:58:00.143Z,29.44
2018-05-26T10:58:59.640Z,29.19
2018-05-26T11:00:00.156Z,29.17
2018-05-26T11:01:00.185Z,28.98
2018-05-26T11:01:59.915Z,28.98
2018-05-26T11:03:00.178Z,29.16
2018-05-26T11:04:00.233Z,29.08
2018-05-26T11:04:59.922Z,29.08
2018-05-26T11:06:00.276Z,29.24
2018-05-26T11:06:59.953Z,29.23
2018-05-26T11:07:59.960Z,29.41
2018-05-26T11:09:00.264Z,29.41
2018-05-26T11:10:00.222Z,29.51
2018-05-26T11:11:00.215Z,29.6
2018-05-26T11:12:00.222Z,29.72
2018-05-26T11:13:00.226Z,29.79
2018-05-26T11:13:59.984Z,29.84
2018-05-26T11:14:59.994Z,30
2018-05-26T11:16:00.000Z,30.05
2018-05-26T11:16:59.998Z,30.13
2018-05-26T11:18:01.093Z,30.09
2018-05-26T11:19:00.372Z,29.97
2018-05-26T11:20:00.016Z,29.94
2018-05-26T11:21:00.285Z,29.76
2018-05-26T11:22:00.316Z,29.79
2018-05-26T11:23:00.345Z,29.75
2018-05-26T11:24:00.944Z,29.79
2018-05-26T11:25:00.080Z,29.82
2018-05-26T11:26:00.390Z,29.78
2018-05-26T11:27:00.328Z,29.91
2018-05-26T11:28:00.087Z,29.84
2018-05-26T11:29:00.273Z,29.88
2018-05-26T11:30:00.371Z,29.86
2018-05-26T11:31:00.526Z,30
2018-05-26T11:32:00.374Z,29.98
2018-05-26T11:33:00.090Z,30.02
2018-05-26T11:34:00.108Z,29.95
2018-05-26T11:35:00.370Z,30.05
2018-05-26T11:36:00.379Z,30.1
2018-05-26T11:37:00.393Z,29.97
2018-05-26T11:38:00.413Z,29.94
2018-05-26T11:39:00.430Z,29.93
2018-05-26T11:40:00.161Z,29.84
2018-05-26T11:40:59.911Z,29.91
2018-05-26T11:42:00.169Z,30.03
2018-05-26T11:43:00.173Z,30.1
2018-05-26T11:44:00.430Z,30.02
2018-05-26T11:45:00.435Z,30.25
2018-05-26T11:46:00.186Z,30.35
2018-05-26T11:47:00.448Z,30.44
2018-05-26T11:48:00.460Z,30.54
2018-05-26T11:49:00.463Z,30.63
2018-05-26T11:50:00.491Z,30.48
2018-05-26T11:51:00.236Z,30.4
2018-05-26T11:52:00.221Z,30.37
2018-05-26T11:53:00.482Z,30.08
2018-05-26T11:54:01.369Z,29.86
2018-05-26T11:55:00.519Z,29.82
2018-05-26T11:56:00.249Z,29.76
2018-05-26T11:57:00.538Z,29.75
2018-05-26T11:58:00.523Z,29.71
2018-05-26T11:59:00.270Z,29.61
2018-05-26T12:00:00.273Z,29.56
2018-05-26T12:01:00.558Z,29.59
2018-05-26T12:02:00.703Z,29.49
2018-05-26T12:03:00.630Z,29.6
2018-05-26T12:04:00.562Z,29.63
2018-05-26T12:05:00.599Z,29.57
2018-05-26T12:06:00.576Z,29.54
2018-05-26T12:07:00.322Z,29.53
2018-05-26T12:08:00.592Z,29.45
2018-05-26T12:09:00.353Z,29.26
2018-05-26T12:10:00.350Z,29.22
2018-05-26T12:11:00.791Z,29.24
2018-05-26T12:12:00.625Z,29.31
2018-05-26T12:13:00.631Z,29.34
2018-05-26T12:14:00.109Z,29.42
2018-05-26T12:15:00.374Z,29.41
2018-05-26T12:16:00.629Z,29.42
2018-05-26T12:17:00.408Z,29.51
2018-05-26T12:18:00.419Z,29.56
2018-05-26T12:19:00.428Z,29.57
2018-05-26T12:20:00.665Z,29.59
2018-05-26T12:21:00.426Z,29.6
2018-05-26T12:22:00.693Z,29.61
2018-05-26T12:23:00.690Z,29.69
2018-05-26T12:24:02.446Z,29.57
2018-05-26T12:25:00.722Z,29.61
2018-05-26T12:26:00.447Z,29.65
2018-05-26T12:27:00.896Z,29.59
2018-05-26T12:28:00.469Z,29.44
2018-05-26T12:29:00.457Z,29.47
2018-05-26T12:30:00.817Z,29.31
2018-05-26T12:31:00.809Z,29.16
2018-05-26T12:32:00.488Z,29.05
2018-05-26T12:33:00.513Z,29.05
2018-05-26T12:34:00.875Z,29.08
2018-05-26T12:35:00.510Z,29.1
2018-05-26T12:36:00.779Z,29.16
2018-05-26T12:37:00.517Z,29.29
2018-05-26T12:38:00.535Z,29.17
2018-05-26T12:39:00.787Z,29.14
2018-05-26T12:40:00.875Z,29.22
2018-05-26T12:41:00.295Z,29.2
2018-05-26T12:42:00.822Z,29.24
2018-05-26T12:43:00.560Z,29.07
2018-05-26T12:44:00.851Z,29.07
2018-05-26T12:45:00.575Z,28.96
2018-05-26T12:46:00.832Z,28.82
2018-05-26T12:47:00.833Z,28.74
2018-05-26T12:48:00.577Z,28.57
2018-05-26T12:49:00.608Z,28.45
2018-05-26T12:50:00.859Z,28.39
2018-05-26T12:51:00.615Z,28.33
2018-05-26T12:52:00.615Z,28.27
2018-05-26T12:53:00.619Z,28.3
2018-05-26T12:54:01.137Z,28.42
2018-05-26T12:55:00.627Z,28.32
2018-05-26T12:56:00.895Z,28.32
2018-05-26T12:57:00.892Z,28.23
2018-05-26T12:58:00.392Z,28.32
2018-05-26T12:59:00.648Z,28.41
2018-05-26T13:00:00.389Z,28.47
2018-05-26T13:01:00.657Z,28.38
2018-05-26T13:02:00.658Z,28.44
2018-05-26T13:03:00.748Z,28.37
2018-05-26T13:04:01.741Z,28.42
2018-05-26T13:05:00.675Z,28.44
2018-05-26T13:06:00.702Z,28.56
2018-05-26T13:07:00.981Z,28.54
2018-05-26T13:08:00.988Z,28.64
2018-05-26T13:09:00.974Z,28.72
2018-05-26T13:10:00.460Z,28.67
2018-05-26T13:11:00.462Z,28.62
2018-05-26T13:12:00.728Z,28.56
2018-05-26T13:13:01.007Z,28.59
2018-05-26T13:14:00.739Z,28.7
2018-05-26T13:15:00.738Z,28.82
2018-05-26T13:16:00.480Z,28.86
2018-05-26T13:17:00.748Z,29.01
2018-05-26T13:18:00.788Z,28.96
2018-05-26T13:19:00.782Z,28.98
2018-05-26T13:20:00.508Z,28.98
2018-05-26T13:21:01.054Z,29.01
2018-05-26T13:22:00.788Z,29.14
2018-05-26T13:23:00.808Z,29.1
2018-05-26T13:24:00.523Z,29.16
2018-05-26T13:25:01.052Z,29.1
2018-05-26T13:26:00.797Z,29.14
2018-05-26T13:27:00.806Z,29.12
2018-05-26T13:28:01.065Z,28.96
2018-05-26T13:29:01.081Z,28.96
2018-05-26T13:30:01.077Z,28.89
2018-05-26T13:31:00.828Z,28.89
2018-05-26T13:32:00.837Z,28.82
2018-05-26T13:33:01.116Z,28.82
2018-05-26T13:34:01.107Z,28.76